createdAt,value
2022-09-23T00:02:25.409Z,74.70
2022-09-23T00:05:22.863Z,74.95
2022-09-23T00:08:20.376Z,75.25
2022-09-23T00:11:17.852Z,75.43
2022-09-23T00:14:15.334Z,75.38
2022-09-23T00:17:12.836Z,75.51
2022-09-23T00:20:10.342Z,75.58
2022-09-23T00:23:07.818Z,75.70
2022-09-23T00:26:05.260Z,75.77
2022-09-23T00:29:02.690Z,75.82
2022-09-23T00:32:00.150Z,76.07
2022-09-23T00:34:57.572Z,76.22
2022-09-23T00:37:55.004Z,76.44
2022-09-23T00:40:52.481Z,76.60
2022-09-23T00:43:49.914Z,76.79
2022-09-23T00:46:47.350Z,76.84
2022-09-23T00:49:44.754Z,76.94
2022-09-23T00:52:42.371Z,76.95
2022-09-23T00:55:39.929Z,77.10
2022-09-23T00:58:37.357Z,77.28
2022-09-23T01:01:34.846Z,77.35
2022-09-23T01:04:32.307Z,77.39
2022-09-23T01:07:30.207Z,77.39
2022-09-23T01:10:27.641Z,77.32
2022-09-23T01:13:25.343Z,77.35
2022-09-23T01:16:22.813Z,77.27
2022-09-23T01:19:20.290Z,77.22
2022-09-23T01:22:17.785Z,77.18
2022-09-23T01:25:15.215Z,77.19
2022-09-23T01:28:12.754Z,77.30
2022-09-23T01:31:10.226Z,77.20
2022-09-23T01:34:07.702Z,77.36
2022-09-23T01:37:05.155Z,77.41
2022-09-23T01:40:03.046Z,77.48
2022-09-23T01:43:00.609Z,77.50
2022-09-23T01:45:58.026Z,77.48
2022-09-23T01:48:55.496Z,77.48
2022-09-23T01:51:52.923Z,77.39
2022-09-23T01:54:50.786Z,77.40
2022-09-23T01:57:49.048Z,77.43
2022-09-23T02:00:46.505Z,77.43
2022-09-23T02:03:43.941Z,77.44
2022-09-23T02:06:41.452Z,77.46
2022-09-23T02:09:38.881Z,77.49
2022-09-23T02:12:38.272Z,77.56
2022-09-23T02:15:35.740Z,77.60
2022-09-23T02:18:33.198Z,77.67
2022-09-23T02:21:30.839Z,77.70
2022-09-23T02:24:28.285Z,77.77
2022-09-23T02:27:26.004Z,77.81
2022-09-23T02:30:24.295Z,77.92
2022-09-23T02:33:21.792Z,78.01
2022-09-23T02:36:19.235Z,78.03
2022-09-23T02:39:16.719Z,78.09
2022-09-23T02:42:14.138Z,78.17
2022-09-23T02:45:11.629Z,78.12
2022-09-23T02:48:09.054Z,78.24
2022-09-23T02:51:06.467Z,78.30
2022-09-23T02:54:04.571Z,78.33
2022-09-23T02:57:02.460Z,78.40
2022-09-23T03:00:00.004Z,78.37
2022-09-23T03:02:57.763Z,78.36
2022-09-23T03:05:55.598Z,78.38
2022-09-23T03:08:53.611Z,78.34
2022-09-23T03:11:51.052Z,78.20
2022-09-23T03:14:49.659Z,78.32
2022-09-23T03:17:48.089Z,78.34
2022-09-23T03:20:45.562Z,78.33
2022-09-23T03:23:42.990Z,78.35
2022-09-23T03:26:40.434Z,78.37
2022-09-23T03:29:37.848Z,78.38
2022-09-23T03:32:35.286Z,78.39
2022-09-23T03:35:32.765Z,78.27
2022-09-23T03:38:30.429Z,78.20
2022-09-23T03:41:29.115Z,78.10
2022-09-23T03:44:29.352Z,78.04
2022-09-23T03:47:26.781Z,77.99
2022-09-23T03:50:24.210Z,78.04
2022-09-23T03:53:22.274Z,78.06
2022-09-23T03:56:19.870Z,78.05
2022-09-23T03:59:17.289Z,78.01
2022-09-23T04:02:16.775Z,78.00
2022-09-23T04:05:14.241Z,78.07
2022-09-23T04:08:11.771Z,78.09
2022-09-23T04:11:09.209Z,78.09
2022-09-23T04:14:07.015Z,78.13
2022-09-23T04:17:04.463Z,78.05
2022-09-23T04:20:01.923Z,78.17
2022-09-23T04:22:59.368Z,78.12
2022-09-23T04:25:56.800Z,78.27
2022-09-23T04:28:54.243Z,78.35
2022-09-23T04:31:51.782Z,78.37
2022-09-23T04:34:49.410Z,78.46
2022-09-23T04:37:46.971Z,78.61
2022-09-23T04:40:44.463Z,78.60
2022-09-23T04:43:42.340Z,78.48
2022-09-23T04:46:39.828Z,78.55
2022-09-23T04:49:37.286Z,78.58
2022-09-23T04:52:34.731Z,78.62
2022-09-23T04:55:32.126Z,78.70
2022-09-23T04:58:29.554Z,78.81
2022-09-23T05:01:27.299Z,78.88
2022-09-23T05:04:24.826Z,79.00
2022-09-23T05:07:22.235Z,79.14
2022-09-23T05:10:19.758Z,79.31
2022-09-23T05:13:17.200Z,79.36
2022-09-23T05:16:14.684Z,79.43
2022-09-23T05:19:13.749Z,79.54
2022-09-23T05:22:11.268Z,79.70
2022-09-23T05:25:08.796Z,79.81
2022-09-23T05:28:07.078Z,80.02
2022-09-23T05:31:05.517Z,80.18
2022-09-23T05:34:02.973Z,80.34
2022-09-23T05:37:00.418Z,80.45
2022-09-23T05:39:58.462Z,80.51
2022-09-23T05:42:56.646Z,80.65
2022-09-23T05:45:54.103Z,80.76
2022-09-23T05:48:51.521Z,80.79
2022-09-23T05:51:48.919Z,80.77
2022-09-23T05:54:46.360Z,80.55
2022-09-23T05:57:43.784Z,80.33
2022-09-23T06:00:41.634Z,79.99
2022-09-23T06:03:39.180Z,79.49
2022-09-23T06:06:36.625Z,78.86
2022-09-23T06:09:36.552Z,78.19
2022-09-23T06:12:35.116Z,77.44
2022-09-23T06:15:32.790Z,76.45
2022-09-23T06:18:30.212Z,75.47
2022-09-23T06:21:27.667Z,74.41
2022-09-23T06:24:30.808Z,73.12
2022-09-23T06:27:28.897Z,71.68
2022-09-23T06:30:26.791Z,70.40
2022-09-23T06:33:34.540Z,69.34
2022-09-23T06:36:42.521Z,66.84
2022-09-23T06:39:41.255Z,60.81
2022-09-23T06:42:38.700Z,54.66
2022-09-23T06:45:36.155Z,50.14
2022-09-23T06:48:35.316Z,47.13
2022-09-23T06:51:32.819Z,46.91
2022-09-23T06:54:30.890Z,48.13
2022-09-23T06:57:28.341Z,49.55
2022-09-23T07:00:26.259Z,51.20
2022-09-23T07:03:23.686Z,52.85
2022-09-23T07:06:22.197Z,54.23
2022-09-23T07:09:19.757Z,55.62
2022-09-23T07:12:17.321Z,56.93
2022-09-23T07:15:15.253Z,58.09
2022-09-23T07:18:12.685Z,58.85
2022-09-23T07:21:10.152Z,59.71
2022-09-23T07:24:07.714Z,60.64
2022-09-23T07:27:05.493Z,61.40
2022-09-23T07:30:02.997Z,61.79
2022-09-23T07:33:00.523Z,62.54
2022-09-23T07:35:58.127Z,62.60
2022-09-23T07:39:00.745Z,62.58
2022-09-23T07:41:58.234Z,62.63
2022-09-23T07:44:57.304Z,61.82
2022-09-23T07:47:55.389Z,59.82
2022-09-23T07:50:52.832Z,54.17
2022-09-23T07:53:50.264Z,47.84
2022-09-23T07:56:47.702Z,43.97
2022-09-23T07:59:45.123Z,38.73
2022-09-23T08:02:42.653Z,35.40
2022-09-23T08:05:40.134Z,33.07
2022-09-23T08:08:39.533Z,30.19
2022-09-23T08:11:42.015Z,27.07
2022-09-23T08:14:39.754Z,25.74
2022-09-23T08:17:37.177Z,25.01
2022-09-23T08:20:48.021Z,22.87
2022-09-23T08:23:47.014Z,22.15
2022-09-23T08:26:44.551Z,21.35
2022-09-23T08:29:41.995Z,20.64
2022-09-23T08:32:39.435Z,19.70
2022-09-23T08:35:36.844Z,19.67
2022-09-23T08:38:34.275Z,18.68
2022-09-23T08:41:31.703Z,18.52
2022-09-23T08:44:29.138Z,18.25
2022-09-23T08:47:27.473Z,18.33
2022-09-23T08:50:25.022Z,17.85
2022-09-23T08:53:22.483Z,18.47
2022-09-23T08:56:19.925Z,17.96
2022-09-23T08:59:17.358Z,17.11
2022-09-23T09:02:14.859Z,17.23
2022-09-23T09:05:12.357Z,16.88
2022-09-23T09:08:09.774Z,16.61
2022-09-23T09:11:07.208Z,16.65
2022-09-23T09:14:04.666Z,16.28
2022-09-23T09:17:02.572Z,16.17
2022-09-23T09:20:01.401Z,16.01
2022-09-23T09:23:00.676Z,16.18
2022-09-23T09:25:58.165Z,16.07
2022-09-23T09:29:02.467Z,16.30
2022-09-23T09:32:15.207Z,15.93
2022-09-23T09:35:12.860Z,15.75
2022-09-23T09:38:10.290Z,15.99
2022-09-23T09:41:07.743Z,15.83
2022-09-23T09:44:05.203Z,15.64
2022-09-23T09:47:02.692Z,15.17
2022-09-23T09:50:00.871Z,15.11
2022-09-23T09:52:58.281Z,15.35
2022-09-23T09:56:00.863Z,15.34
2022-09-23T09:59:01.372Z,14.94
2022-09-23T10:01:58.821Z,15.11
2022-09-23T10:04:56.251Z,15.03
2022-09-23T10:07:53.703Z,15.11
2022-09-23T10:10:51.932Z,14.85
2022-09-23T10:13:49.375Z,14.69
2022-09-23T10:16:47.384Z,14.47
2022-09-23T10:19:44.987Z,14.39
2022-09-23T10:22:43.342Z,14.10
2022-09-23T10:25:40.823Z,13.96
2022-09-23T10:28:38.258Z,13.99
2022-09-23T10:31:35.685Z,14.16
2022-09-23T10:34:33.187Z,14.24
2022-09-23T10:37:30.734Z,14.44
2022-09-23T10:40:46.053Z,14.82
2022-09-23T10:44:01.590Z,14.71
2022-09-23T10:46:59.107Z,14.99
2022-09-23T10:49:56.515Z,14.79
2022-09-23T10:52:53.973Z,14.69
2022-09-23T10:55:51.408Z,14.85
2022-09-23T10:58:50.637Z,14.75
2022-09-23T11:01:49.101Z,14.71
2022-09-23T11:04:46.580Z,14.67
2022-09-23T11:07:44.532Z,14.79
2022-09-23T11:10:45.949Z,14.60
2022-09-23T11:13:44.124Z,14.69
2022-09-23T11:16:41.602Z,14.82
2022-09-23T11:19:43.432Z,14.64
2022-09-23T11:22:44.019Z,14.51
2022-09-23T11:25:41.456Z,14.88
2022-09-23T11:28:38.962Z,15.18
2022-09-23T11:31:36.462Z,15.49
2022-09-23T11:34:34.254Z,15.65
2022-09-23T11:37:31.670Z,15.58
2022-09-23T11:40:30.368Z,15.52
2022-09-23T11:43:29.058Z,14.93
2022-09-23T11:46:28.549Z,14.82
2022-09-23T11:49:26.092Z,14.80
2022-09-23T11:52:23.543Z,15.03
2022-09-23T11:55:23.670Z,14.70
2022-09-23T11:58:25.510Z,14.69
2022-09-23T12:01:34.878Z,14.57
2022-09-23T12:04:34.155Z,14.40
2022-09-23T12:07:31.986Z,14.64
2022-09-23T12:10:29.562Z,14.50
2022-09-23T12:13:27.439Z,14.43
2022-09-23T12:16:24.964Z,14.43
2022-09-23T12:19:23.559Z,14.59
2022-09-23T12:22:21.754Z,14.65
2022-09-23T12:25:19.188Z,14.79
2022-09-23T12:28:16.978Z,15.03
2022-09-23T12:31:14.471Z,15.25
2022-09-23T12:34:11.924Z,15.63
2022-09-23T12:37:09.805Z,16.21
2022-09-23T12:40:07.839Z,16.74
2022-09-23T12:43:05.261Z,17.05
2022-09-23T12:46:03.028Z,17.81
2022-09-23T12:49:00.698Z,18.32
2022-09-23T12:51:58.135Z,18.62
2022-09-23T12:54:56.162Z,19.13
2022-09-23T12:57:53.598Z,19.71
2022-09-23T13:00:51.652Z,20.18
2022-09-23T13:04:06.864Z,20.61
2022-09-23T13:07:06.562Z,20.70
2022-09-23T13:10:04.046Z,20.80
2022-09-23T13:13:02.481Z,21.06
2022-09-23T13:15:59.938Z,21.38
2022-09-23T13:18:57.416Z,21.44
2022-09-23T13:21:55.356Z,21.82
2022-09-23T13:24:52.938Z,21.82
2022-09-23T13:27:50.359Z,21.95
2022-09-23T13:30:47.822Z,22.09
2022-09-23T13:33:45.349Z,22.13
2022-09-23T13:36:42.802Z,22.39
2022-09-23T13:39:40.246Z,22.58
2022-09-23T13:42:37.924Z,22.71
2022-09-23T13:45:35.401Z,22.91
2022-09-23T13:48:33.157Z,23.19
2022-09-23T13:51:31.207Z,23.36
2022-09-23T13:54:28.993Z,23.31
2022-09-23T13:57:26.536Z,23.43
2022-09-23T14:00:25.526Z,23.59
2022-09-23T14:03:22.966Z,23.54
2022-09-23T14:06:20.404Z,23.89
2022-09-23T14:09:17.876Z,24.19
2022-09-23T14:12:15.337Z,23.94
2022-09-23T14:15:13.205Z,24.01
2022-09-23T14:18:11.159Z,24.11
2022-09-23T14:21:09.454Z,24.25
2022-09-23T14:24:06.991Z,24.36
2022-09-23T14:27:04.641Z,24.57
2022-09-23T14:30:02.314Z,24.85
2022-09-23T14:33:00.062Z,24.91
2022-09-23T14:35:57.539Z,24.98
2022-09-23T14:38:55.448Z,25.29
2022-09-23T14:41:53.455Z,25.51
2022-09-23T14:44:51.385Z,25.56
2022-09-23T14:47:48.988Z,25.79
2022-09-23T14:50:48.656Z,25.72
2022-09-23T14:53:46.529Z,26.05
2022-09-23T14:56:44.043Z,26.11
2022-09-23T14:59:41.508Z,26.50
2022-09-23T15:02:39.083Z,26.78
2022-09-23T15:05:36.581Z,26.96
2022-09-23T15:08:34.032Z,27.32
2022-09-23T15:11:31.471Z,28.06
2022-09-23T15:14:37.745Z,28.47
2022-09-23T15:17:36.501Z,28.35
2022-09-23T15:20:34.011Z,28.92
2022-09-23T15:23:31.466Z,29.55
2022-09-23T15:26:28.892Z,30.04
2022-09-23T15:29:27.321Z,30.39
2022-09-23T15:32:24.961Z,30.62
2022-09-23T15:35:22.403Z,30.89
2022-09-23T15:38:19.819Z,31.19
2022-09-23T15:41:17.458Z,31.51
2022-09-23T15:44:14.929Z,32.26
2022-09-23T15:47:12.752Z,32.63
2022-09-23T15:50:11.243Z,33.10
2022-09-23T15:53:09.008Z,33.46
2022-09-23T15:56:06.542Z,33.96
2022-09-23T15:59:04.251Z,33.99
2022-09-23T16:02:01.744Z,34.38
2022-09-23T16:05:02.931Z,35.25
2022-09-23T16:08:02.796Z,35.65
2022-09-23T16:11:04.282Z,35.65
2022-09-23T16:14:01.734Z,35.91
2022-09-23T16:16:59.179Z,36.00
2022-09-23T16:19:56.723Z,36.84
2022-09-23T16:22:54.174Z,37.22
2022-09-23T16:25:52.739Z,37.58
2022-09-23T16:28:50.242Z,38.09
2022-09-23T16:31:47.800Z,38.61
2022-09-23T16:34:45.379Z,39.10
2022-09-23T16:37:47.062Z,39.59
2022-09-23T16:40:47.146Z,40.33
2022-09-23T16:43:44.971Z,40.97
2022-09-23T16:46:43.377Z,41.59
2022-09-23T16:49:40.812Z,41.90
2022-09-23T16:52:38.262Z,42.37
2022-09-23T16:55:35.806Z,42.87
2022-09-23T16:58:33.272Z,43.14
2022-09-23T17:01:48.373Z,43.97
2022-09-23T17:04:46.723Z,44.24
2022-09-23T17:07:44.447Z,45.04
2022-09-23T17:10:44.532Z,45.54
2022-09-23T17:13:42.433Z,46.36
2022-09-23T17:16:39.924Z,46.87
2022-09-23T17:19:37.501Z,47.29
2022-09-23T17:22:35.421Z,48.21
2022-09-23T17:25:34.159Z,49.08
2022-09-23T17:28:31.628Z,49.09
2022-09-23T17:31:29.314Z,49.52
2022-09-23T17:34:28.980Z,50.06
2022-09-23T17:37:26.426Z,50.34
2022-09-23T17:40:26.353Z,50.88
2022-09-23T17:43:24.772Z,51.11
2022-09-23T17:46:22.367Z,51.39
2022-09-23T17:49:20.508Z,51.80
2022-09-23T17:52:18.022Z,52.01
2022-09-23T17:55:16.863Z,52.97
2022-09-23T17:58:14.314Z,53.10
2022-09-23T18:01:11.895Z,53.74
2022-09-23T18:04:09.509Z,53.95
2022-09-23T18:07:07.888Z,54.08
2022-09-23T18:10:05.367Z,54.65
2022-09-23T18:13:02.821Z,55.02
2022-09-23T18:16:00.274Z,55.18
2022-09-23T18:18:57.788Z,55.34
2022-09-23T18:21:56.282Z,55.86
2022-09-23T18:24:53.714Z,56.02
2022-09-23T18:27:51.174Z,56.53
2022-09-23T18:30:48.639Z,56.44
2022-09-23T18:33:46.117Z,56.96
2022-09-23T18:36:43.615Z,57.57
2022-09-23T18:39:41.049Z,58.08
2022-09-23T18:42:40.512Z,58.32
2022-09-23T18:45:38.000Z,58.61
2022-09-23T18:48:53.023Z,58.78
2022-09-23T18:51:50.557Z,58.99
2022-09-23T18:54:50.780Z,59.28
2022-09-23T18:57:51.856Z,59.51
2022-09-23T19:00:50.441Z,59.67
2022-09-23T19:03:48.500Z,59.96
2022-09-23T19:06:45.950Z,60.27
2022-09-23T19:09:43.457Z,60.43
2022-09-23T19:12:41.042Z,60.93
2022-09-23T19:15:38.561Z,61.29
2022-09-23T19:18:37.168Z,61.36
2022-09-23T19:21:34.742Z,61.98
2022-09-23T19:24:32.562Z,62.36
2022-09-23T19:27:30.065Z,62.65
2022-09-23T19:30:27.539Z,62.91
2022-09-23T19:33:24.993Z,63.06
2022-09-23T19:36:22.497Z,63.24
2022-09-23T19:39:19.969Z,63.34
2022-09-23T19:42:17.509Z,63.30
2022-09-23T19:45:14.970Z,63.43
2022-09-23T19:48:12.412Z,63.42
2022-09-23T19:51:09.824Z,63.49
2022-09-23T19:54:07.423Z,64.03
2022-09-23T19:57:05.025Z,64.19
2022-09-23T20:00:02.476Z,64.26
2022-09-23T20:03:00.114Z,64.66
2022-09-23T20:05:57.877Z,64.82
2022-09-23T20:08:57.647Z,65.03
2022-09-23T20:11:55.080Z,65.19
2022-09-23T20:14:52.593Z,65.28
2022-09-23T20:17:51.533Z,65.14
2022-09-23T20:20:48.964Z,65.29
2022-09-23T20:23:46.386Z,65.43
2022-09-23T20:27:09.740Z,65.56
2022-09-23T20:30:07.238Z,65.63
2022-09-23T20:33:04.665Z,66.05
2022-09-23T20:36:02.182Z,66.22
2022-09-23T20:39:00.499Z,66.39
2022-09-23T20:41:58.608Z,66.35
2022-09-23T20:44:56.333Z,66.75
2022-09-23T20:47:53.794Z,66.80
2022-09-23T20:50:51.373Z,67.00
2022-09-23T20:53:49.231Z,67.03
2022-09-23T20:56:46.746Z,67.23
2022-09-23T20:59:44.618Z,67.41
2022-09-23T21:02:42.520Z,67.49
2022-09-23T21:05:42.323Z,67.69
2022-09-23T21:08:40.244Z,67.85
2022-09-23T21:11:38.356Z,67.93
2022-09-23T21:14:35.789Z,68.03
2022-09-23T21:17:33.748Z,68.20
2022-09-23T21:20:31.796Z,68.28
2022-09-23T21:23:29.377Z,68.32
2022-09-23T21:26:26.797Z,68.46
2022-09-23T21:29:24.254Z,68.60
2022-09-23T21:32:21.887Z,68.52
2022-09-23T21:35:19.518Z,68.63
2022-09-23T21:38:16.938Z,68.73
2022-09-23T21:41:14.371Z,68.98
2022-09-23T21:44:12.158Z,69.23
2022-09-23T21:47:09.669Z,69.31
2022-09-23T21:50:07.149Z,69.45
2022-09-23T21:53:04.843Z,69.71
2022-09-23T21:56:03.529Z,69.60
2022-09-23T21:59:01.038Z,69.89
2022-09-23T22:01:59.376Z,70.03
2022-09-23T22:04:56.811Z,70.01
2022-09-23T22:07:54.365Z,70.02
2022-09-23T22:10:51.801Z,70.35
2022-09-23T22:13:49.240Z,70.26
2022-09-23T22:16:46.680Z,70.45
2022-09-23T22:19:47.593Z,70.65
2022-09-23T22:22:45.021Z,70.78
2022-09-23T22:25:42.473Z,70.93
2022-09-23T22:28:57.507Z,71.02
2022-09-23T22:32:12.482Z,71.02
2022-09-23T22:35:09.926Z,71.04
2022-09-23T22:38:07.375Z,71.27
2022-09-23T22:41:04.860Z,71.59
2022-09-23T22:44:03.834Z,71.61
2022-09-23T22:47:01.938Z,71.83
2022-09-23T22:49:59.427Z,71.80
2022-09-23T22:52:56.869Z,71.87
2022-09-23T22:55:54.300Z,72.12
2022-09-23T22:58:51.738Z,72.13
2022-09-23T23:01:51.805Z,72.25
2022-09-23T23:04:49.370Z,72.45
2022-09-23T23:07:47.095Z,72.57
2022-09-23T23:10:44.531Z,72.63
2022-09-23T23:13:42.004Z,72.68
2022-09-23T23:16:39.540Z,72.69
2022-09-23T23:19:39.875Z,72.51
2022-09-23T23:22:37.392Z,72.72
2022-09-23T23:25:34.848Z,72.73
2022-09-23T23:28:32.327Z,72.86
2022-09-23T23:31:32.231Z,73.07
2022-09-23T23:34:29.822Z,73.10
2022-09-23T23:37:27.262Z,73.08
2022-09-23T23:40:24.682Z,73.13
2022-09-23T23:43:22.187Z,73.21
2022-09-23T23:46:19.648Z,73.41
2022-09-23T23:49:17.137Z,73.45
2022-09-23T23:52:14.584Z,73.62
2022-09-23T23:55:12.019Z,73.71
2022-09-23T23:58:09.455Z,73.78
